Погода Панчималькона 2 недели

Сан-Сальвадор, Сальвадор

25 февраля-08 марта
  • 25февраля
    Сегодня
    +16°
    +33°
    Ясно и безоблачно
    ВремяПогодаТемператураВлажностьДавлениеВетер, м/сВероятность осадков
    00:00Ясно и безоблачно+19°C59 %711 мм3.1 м/с2 %
    03:00Ясно и безоблачно+19°C66 %710 мм3.7 м/с2 %
    06:00Ясно и безоблачно+17°C79 %711 мм3.4 м/с2 %
    09:00Ясно и безоблачно+26°C45 %713 мм2.6 м/с2 %
    12:00Ясно и безоблачно+32°C29 %712 мм1.5 м/с2 %
    15:00Ясно и безоблачно+30°C39 %710 мм2.2 м/с2 %
    18:00Ясно и безоблачно+24°C64 %710 мм1.0 м/с2 %
    21:00Ясно и безоблачно+22°C70 %711 мм1.6 м/с2 %
  • 26февраля
    Понедельник
    +17°
    +32°
    Ясно и безоблачно
    ВремяПогодаТемператураВлажностьДавлениеВетер, м/сВероятность осадков
    00:00Ясно и безоблачно+20°C72 %711 мм2.4 м/с2 %
    03:00Ясно и безоблачно+18°C75 %710 мм2.7 м/с2 %
    06:00Ясно и безоблачно+17°C78 %711 мм2.7 м/с2 %
    09:00Ясно и безоблачно+27°C41 %713 мм1.4 м/с2 %
    12:00Ясно и безоблачно+32°C27 %712 мм1.3 м/с2 %
    15:00Ясно и безоблачно+30°C33 %710 мм3.4 м/с2 %
    18:00Ясно и безоблачно+25°C49 %710 мм1.9 м/с2 %
    21:00Ясно и безоблачно+22°C66 %710 мм1.4 м/с2 %
  • 27февраля
    Вторник
    +18°
    +32°
    Ясно и безоблачно
    ВремяПогодаТемператураВлажностьДавлениеВетер, м/сВероятность осадков
    00:00Ясно и безоблачно+20°C69 %710 мм1.9 м/с2 %
    03:00Ясно и безоблачно+19°C73 %709 мм2.3 м/с2 %
    06:00Ясно и безоблачно+18°C79 %709 мм2.3 м/с2 %
    09:00Ясно и безоблачно+27°C43 %712 мм1.6 м/с2 %
    12:00Ясно и безоблачно+32°C30 %711 мм1.6 м/с2 %
    15:00Ясно и безоблачно+30°C43 %709 мм3.5 м/с2 %
    18:00Ясно и безоблачно+26°C47 %708 мм1.3 м/с2 %
    21:00Ясно и безоблачно+22°C60 %708 мм0.6 м/с2 %
  • 28февраля
    Среда
    +19°
    +33°
    Ясно и безоблачно
    ВремяПогодаТемператураВлажностьДавлениеВетер, м/сВероятность осадков
    00:00Ясно и безоблачно+21°C60 %709 мм1.0 м/с2 %
    03:00Ясно и безоблачно+21°C64 %708 мм0.8 м/с2 %
    06:00Ясно и безоблачно+20°C69 %709 мм0.9 м/с2 %
    09:00Ясно и безоблачно+28°C48 %712 мм1.5 м/с2 %
    12:00Ясно и безоблачно+33°C39 %711 мм2.8 м/с2 %
    15:00Ясно и безоблачно+30°C51 %709 мм3.6 м/с2 %
    18:00Ясно и безоблачно+25°C69 %709 мм2.3 м/с2 %
    21:00Ясно и безоблачно+22°C83 %710 мм1.3 м/с2 %
Мы используем cookies
Соглашаюсь